createdAt,value
2022-10-14T00:00:45.722Z,20.13
2022-10-14T00:03:12.685Z,19.58
2022-10-14T00:05:43.041Z,19.50
2022-10-14T00:08:10.955Z,19.60
2022-10-14T00:10:39.606Z,18.50
2022-10-14T00:13:07.457Z,21.45
2022-10-14T00:15:39.946Z,19.20
2022-10-14T00:18:08.323Z,20.25
2022-10-14T00:20:36.189Z,20.15
2022-10-14T00:23:03.273Z,21.30
2022-10-14T00:25:30.879Z,19.38
2022-10-14T00:28:03.896Z,20.52
2022-10-14T00:30:30.835Z,22.15
2022-10-14T00:32:57.774Z,22.95
2022-10-14T00:35:24.759Z,27.48
2022-10-14T00:37:51.598Z,28.88
2022-10-14T00:40:18.755Z,30.42
2022-10-14T00:42:45.743Z,31.60
2022-10-14T00:45:16.402Z,33.28
2022-10-14T00:47:44.783Z,29.58
2022-10-14T00:50:13.266Z,32.55
2022-10-14T00:52:40.291Z,28.02
2022-10-14T00:55:16.659Z,27.98
2022-10-14T00:57:44.408Z,27.27
2022-10-14T01:00:18.771Z,28.58
2022-10-14T01:02:47.034Z,34.40
2022-10-14T01:05:16.565Z,32.97
2022-10-14T01:08:04.590Z,31.88
2022-10-14T01:10:56.457Z,30.98
2022-10-14T01:13:31.775Z,29.05
2022-10-14T01:16:25.966Z,23.67
2022-10-14T01:19:22.822Z,22.67
2022-10-14T01:21:56.374Z,22.08
2022-10-14T01:24:54.738Z,21.35
2022-10-14T01:27:27.898Z,22.48
2022-10-14T01:30:10.016Z,19.25
2022-10-14T01:32:39.627Z,21.77
2022-10-14T01:35:13.816Z,23.58
2022-10-14T01:37:49.285Z,22.52
2022-10-14T01:40:25.782Z,21.73
2022-10-14T01:42:54.210Z,21.30
2022-10-14T01:45:23.918Z,22.67
2022-10-14T01:47:53.684Z,22.08
2022-10-14T01:50:25.358Z,21.02
2022-10-14T01:53:15.883Z,21.55
2022-10-14T01:55:46.906Z,20.90
2022-10-14T01:58:17.296Z,22.15
2022-10-14T02:00:44.415Z,23.70
2022-10-14T02:03:13.565Z,20.92
2022-10-14T02:05:43.548Z,21.65
2022-10-14T02:08:17.156Z,22.63
2022-10-14T02:10:53.888Z,22.42
2022-10-14T02:13:35.635Z,22.08
2022-10-14T02:16:25.631Z,23.08
2022-10-14T02:18:55.392Z,21.98
2022-10-14T02:21:34.756Z,24.52
2022-10-14T02:24:24.988Z,23.20
2022-10-14T02:26:55.071Z,23.15
2022-10-14T02:29:24.061Z,22.63
2022-10-14T02:31:52.177Z,24.98
2022-10-14T02:34:23.310Z,22.20
2022-10-14T02:36:51.508Z,23.88
2022-10-14T02:39:39.711Z,23.45
2022-10-14T02:42:06.917Z,23.17
2022-10-14T02:44:33.908Z,25.33
2022-10-14T02:47:01.175Z,23.40
2022-10-14T02:49:28.198Z,21.02
2022-10-14T02:51:55.373Z,22.38
2022-10-14T02:54:22.364Z,23.55
2022-10-14T02:56:49.306Z,23.35
2022-10-14T02:59:16.380Z,23.55
2022-10-14T03:01:43.360Z,25.77
2022-10-14T03:04:10.392Z,24.80
2022-10-14T03:06:37.354Z,24.17
2022-10-14T03:09:04.239Z,24.15
2022-10-14T03:11:31.211Z,23.50
2022-10-14T03:13:58.282Z,23.80
2022-10-14T03:16:25.227Z,25.00
2022-10-14T03:18:52.170Z,25.27
2022-10-14T03:21:19.090Z,24.35
2022-10-14T03:23:46.092Z,24.85
2022-10-14T03:26:14.208Z,23.70
2022-10-14T03:28:41.488Z,25.83
2022-10-14T03:31:08.619Z,23.85
2022-10-14T03:33:35.603Z,25.27
2022-10-14T03:36:02.606Z,23.63
2022-10-14T03:38:29.592Z,22.58
2022-10-14T03:40:56.821Z,22.63
2022-10-14T03:43:23.811Z,24.33
2022-10-14T03:45:50.935Z,25.20
2022-10-14T03:48:18.015Z,26.48
2022-10-14T03:50:44.979Z,23.52
2022-10-14T03:53:11.975Z,24.25
2022-10-14T03:55:39.143Z,25.23
2022-10-14T03:58:06.386Z,22.85
2022-10-14T04:00:35.907Z,25.38
2022-10-14T04:03:03.021Z,24.77
2022-10-14T04:05:34.136Z,23.65
2022-10-14T04:08:01.864Z,23.52
2022-10-14T04:10:29.082Z,25.40
2022-10-14T04:12:56.640Z,29.63
2022-10-14T04:15:24.671Z,29.05
2022-10-14T04:17:52.230Z,29.50
2022-10-14T04:20:23.758Z,30.50
2022-10-14T04:22:50.722Z,27.13
2022-10-14T04:25:17.779Z,29.27
2022-10-14T04:27:44.709Z,28.75
2022-10-14T04:30:12.379Z,28.90
2022-10-14T04:32:39.332Z,28.75
2022-10-14T04:35:06.754Z,29.63
2022-10-14T04:37:33.706Z,29.10
2022-10-14T04:40:00.677Z,28.33
2022-10-14T04:42:27.708Z,26.95
2022-10-14T04:44:54.950Z,26.23
2022-10-14T04:47:21.963Z,26.95
2022-10-14T04:49:48.911Z,29.33
2022-10-14T04:52:16.213Z,31.00
2022-10-14T04:54:43.172Z,28.60
2022-10-14T04:57:10.397Z,32.72
2022-10-14T04:59:42.278Z,29.20
2022-10-14T05:02:09.341Z,37.28
2022-10-14T05:04:36.319Z,32.80
2022-10-14T05:07:03.479Z,36.35
2022-10-14T05:09:30.525Z,33.75
2022-10-14T05:11:58.756Z,30.25
2022-10-14T05:14:26.261Z,28.98
2022-10-14T05:16:53.246Z,28.63
2022-10-14T05:19:20.175Z,27.55
2022-10-14T05:21:47.249Z,28.67
2022-10-14T05:24:14.226Z,31.30
2022-10-14T05:26:41.197Z,33.65
2022-10-14T05:29:10.338Z,34.25
2022-10-14T05:31:39.338Z,31.63
2022-10-14T05:34:06.369Z,34.95
2022-10-14T05:36:33.302Z,33.53
2022-10-14T05:39:01.576Z,29.00
2022-10-14T05:41:28.716Z,27.65
2022-10-14T05:43:55.843Z,31.15
2022-10-14T05:46:22.785Z,29.27
2022-10-14T05:48:53.829Z,31.52
2022-10-14T05:51:21.579Z,27.38
2022-10-14T05:53:49.233Z,30.67
2022-10-14T05:56:16.441Z,30.83
2022-10-14T05:58:43.868Z,28.55
2022-10-14T06:01:11.839Z,31.20
2022-10-14T06:03:39.050Z,28.45
2022-10-14T06:06:06.596Z,32.58
2022-10-14T06:08:33.529Z,30.67
2022-10-14T06:11:03.841Z,35.40
2022-10-14T06:13:31.053Z,31.13
2022-10-14T06:15:58.140Z,34.30
2022-10-14T06:18:27.229Z,32.72
2022-10-14T06:20:55.725Z,31.33
2022-10-14T06:23:22.880Z,34.10
2022-10-14T06:25:50.379Z,32.00
2022-10-14T06:28:17.571Z,34.58
2022-10-14T06:30:50.941Z,35.63
2022-10-14T06:33:18.043Z,34.88
2022-10-14T06:35:45.369Z,31.38
2022-10-14T06:38:12.862Z,31.42
2022-10-14T06:40:40.167Z,31.13
2022-10-14T06:43:07.513Z,32.97
2022-10-14T06:45:34.577Z,28.38
2022-10-14T06:48:02.393Z,31.23
2022-10-14T06:50:29.388Z,34.05
2022-10-14T06:52:56.368Z,32.97
2022-10-14T06:55:23.520Z,34.17
2022-10-14T06:57:50.461Z,30.08
2022-10-14T07:00:17.933Z,30.92
2022-10-14T07:02:45.367Z,29.90
2022-10-14T07:05:12.690Z,28.77
2022-10-14T07:07:39.899Z,26.83
2022-10-14T07:10:07.380Z,30.15
2022-10-14T07:12:34.579Z,28.50
2022-10-14T07:15:01.790Z,32.53
2022-10-14T07:17:28.758Z,29.08
2022-10-14T07:19:55.741Z,30.67
2022-10-14T07:22:23.025Z,28.75
2022-10-14T07:24:50.266Z,32.20
2022-10-14T07:27:17.338Z,33.05
2022-10-14T07:29:44.297Z,30.05
2022-10-14T07:32:11.204Z,31.50
2022-10-14T07:34:38.449Z,33.85
2022-10-14T07:37:05.542Z,32.70
2022-10-14T07:39:32.492Z,33.50
2022-10-14T07:41:59.486Z,33.90
2022-10-14T07:44:27.504Z,36.95
2022-10-14T07:46:54.899Z,34.05
2022-10-14T07:49:23.072Z,31.83
2022-10-14T07:51:50.561Z,31.48
2022-10-14T07:54:23.901Z,31.05
2022-10-14T07:56:51.262Z,33.85
2022-10-14T07:59:20.457Z,33.90
2022-10-14T08:01:48.484Z,32.55
2022-10-14T08:04:15.821Z,32.90
2022-10-14T08:06:42.767Z,32.83
2022-10-14T08:09:11.491Z,32.30
2022-10-14T08:11:39.103Z,33.65
2022-10-14T08:14:06.330Z,33.03
2022-10-14T08:16:35.492Z,31.00
2022-10-14T08:19:12.581Z,32.78
2022-10-14T08:21:42.299Z,32.33
2022-10-14T08:24:10.204Z,31.63
2022-10-14T08:26:39.537Z,32.25
2022-10-14T08:29:10.932Z,31.05
2022-10-14T08:31:40.757Z,31.75
2022-10-14T08:34:07.736Z,32.10
2022-10-14T08:36:34.717Z,31.60
2022-10-14T08:39:04.705Z,28.48
2022-10-14T08:41:44.770Z,29.55
2022-10-14T08:44:29.152Z,28.33
2022-10-14T08:47:02.473Z,28.17
2022-10-14T08:49:38.581Z,29.83
2022-10-14T08:52:11.376Z,27.33
2022-10-14T08:54:45.367Z,28.75
2022-10-14T08:57:17.379Z,28.83
2022-10-14T08:59:45.210Z,27.58
2022-10-14T09:02:24.748Z,27.05
2022-10-14T09:04:51.773Z,25.92
2022-10-14T09:07:21.174Z,26.98
2022-10-14T09:09:52.051Z,27.60
2022-10-14T09:12:27.519Z,25.33
2022-10-14T09:15:06.822Z,25.00
2022-10-14T09:17:40.532Z,26.45
2022-10-14T09:20:16.834Z,24.42
2022-10-14T09:22:44.029Z,27.02
2022-10-14T09:25:16.096Z,24.58
2022-10-14T09:27:43.390Z,26.00
2022-10-14T09:30:16.342Z,25.35
2022-10-14T09:32:54.926Z,25.17
2022-10-14T09:35:35.944Z,25.20
2022-10-14T09:38:02.912Z,24.60
2022-10-14T09:40:33.978Z,23.95
2022-10-14T09:43:10.140Z,24.48
2022-10-14T09:46:01.991Z,23.75
2022-10-14T09:48:44.749Z,23.95
2022-10-14T09:51:19.778Z,24.00
2022-10-14T09:53:52.260Z,23.77
2022-10-14T09:56:42.935Z,22.77
2022-10-14T09:59:20.023Z,22.80
2022-10-14T10:02:00.765Z,21.42
2022-10-14T10:04:47.895Z,22.55
2022-10-14T10:07:34.193Z,20.55
2022-10-14T10:10:05.416Z,21.17
2022-10-14T10:12:34.862Z,21.80
2022-10-14T10:15:05.624Z,21.33
2022-10-14T10:17:35.921Z,21.35
2022-10-14T10:20:33.881Z,20.98
2022-10-14T10:23:25.603Z,21.10
2022-10-14T10:25:53.087Z,20.00
2022-10-14T10:28:32.042Z,20.65
2022-10-14T10:31:36.543Z,20.80
2022-10-14T10:34:52.919Z,21.30
2022-10-14T10:37:25.775Z,19.35
2022-10-14T10:40:05.200Z,22.13
2022-10-14T10:42:43.489Z,24.17
2022-10-14T10:45:52.573Z,19.92
2022-10-14T10:48:21.430Z,20.02
2022-10-14T10:51:02.779Z,19.98
2022-10-14T10:53:43.835Z,17.83
2022-10-14T10:56:33.944Z,19.02
2022-10-14T11:02:12.563Z,20.67
2022-10-14T11:04:46.769Z,21.30
2022-10-14T11:08:06.782Z,20.58
2022-10-14T11:11:29.829Z,21.40
2022-10-14T11:14:20.603Z,20.10
2022-10-14T11:17:01.753Z,19.25
2022-10-14T11:19:55.250Z,18.58
2022-10-14T11:22:48.171Z,21.02
2022-10-14T11:25:25.677Z,21.48
2022-10-14T11:28:11.178Z,20.77
2022-10-14T11:30:52.324Z,20.88
2022-10-14T11:33:25.065Z,20.45
2022-10-14T11:36:13.674Z,20.25
2022-10-14T11:39:00.054Z,19.02
2022-10-14T11:41:46.378Z,19.60
2022-10-14T11:47:06.154Z,20.05
2022-10-14T11:49:43.194Z,19.60
2022-10-14T11:52:18.340Z,18.52
2022-10-14T11:54:49.541Z,19.25
2022-10-14T11:57:25.846Z,18.90
2022-10-14T12:00:01.709Z,18.80
2022-10-14T12:02:47.958Z,19.10
2022-10-14T12:05:24.451Z,17.15
2022-10-14T12:08:00.318Z,18.40
2022-10-14T12:10:51.475Z,22.23
2022-10-14T12:13:32.641Z,22.08
2022-10-14T12:16:01.563Z,18.67
2022-10-14T12:18:31.441Z,19.27
2022-10-14T12:21:10.808Z,17.60
2022-10-14T12:23:44.078Z,18.63
2022-10-14T12:26:26.385Z,18.65
2022-10-14T12:28:54.990Z,19.38
2022-10-14T12:31:35.971Z,19.52
2022-10-14T12:34:11.919Z,19.10
2022-10-14T12:36:40.903Z,18.30
2022-10-14T12:39:20.071Z,19.02
2022-10-14T12:42:06.395Z,18.98
2022-10-14T12:44:49.770Z,19.30
2022-10-14T12:47:36.236Z,18.38
2022-10-14T12:50:13.961Z,17.38
2022-10-14T12:52:45.258Z,19.42
2022-10-14T12:55:21.824Z,19.08
2022-10-14T12:57:58.506Z,18.42
2022-10-14T13:00:25.452Z,17.77
2022-10-14T13:02:56.595Z,19.25
2022-10-14T13:05:32.915Z,19.48
2022-10-14T13:08:15.101Z,18.05
2022-10-14T13:10:46.824Z,19.50
2022-10-14T13:13:39.084Z,18.50
2022-10-14T13:16:28.648Z,18.88
2022-10-14T13:19:03.119Z,17.98
2022-10-14T13:21:49.930Z,19.38
2022-10-14T13:24:42.104Z,18.10
2022-10-14T13:27:12.955Z,18.95
2022-10-14T13:32:45.572Z,20.48
2022-10-14T13:35:31.446Z,19.65
2022-10-14T13:38:08.311Z,18.75
2022-10-14T13:40:38.989Z,19.35
2022-10-14T13:43:20.150Z,19.67
2022-10-14T13:45:48.860Z,20.52
2022-10-14T13:48:30.369Z,19.70
2022-10-14T13:51:35.114Z,19.08
2022-10-14T13:54:25.014Z,20.17
2022-10-14T14:00:37.303Z,20.35
2022-10-14T14:02:38.871Z,20.52
2022-10-14T14:05:06.290Z,18.98
2022-10-14T14:10:25.574Z,19.63
2022-10-14T14:12:52.990Z,19.70
2022-10-14T14:15:30.241Z,24.05
2022-10-14T14:17:57.418Z,28.42
2022-10-14T14:20:28.675Z,31.30
2022-10-14T14:22:58.859Z,27.50
2022-10-14T14:25:50.657Z,26.38
2022-10-14T14:28:19.275Z,26.13
2022-10-14T14:30:54.979Z,22.48
2022-10-14T14:33:31.653Z,23.75
2022-10-14T14:36:04.509Z,19.45
2022-10-14T14:38:37.299Z,20.70
2022-10-14T14:41:17.311Z,21.35
2022-10-14T14:43:53.302Z,21.40
2022-10-14T14:46:40.305Z,21.48
2022-10-14T14:49:09.247Z,23.50
2022-10-14T14:51:39.618Z,22.80
2022-10-14T14:54:07.419Z,23.48
2022-10-14T14:56:44.361Z,27.30
2022-10-14T14:59:26.424Z,27.92
2022-10-14T15:01:54.404Z,27.38
2022-10-14T15:04:25.618Z,29.23
2022-10-14T15:07:06.536Z,27.30
2022-10-14T15:12:15.950Z,30.67
2022-10-14T15:14:50.629Z,31.50
2022-10-14T15:17:38.178Z,31.95
2022-10-14T15:20:05.283Z,31.35
2022-10-14T15:22:36.809Z,32.67
2022-10-14T15:25:09.086Z,33.95
2022-10-14T15:27:35.942Z,33.17
2022-10-14T15:30:18.256Z,35.15
2022-10-14T15:32:45.337Z,34.33
2022-10-14T15:35:17.572Z,31.33
2022-10-14T15:37:44.769Z,30.67
2022-10-14T15:40:22.763Z,27.13
2022-10-14T15:42:50.979Z,25.25
2022-10-14T15:45:19.351Z,25.50
2022-10-14T15:47:52.362Z,25.02
2022-10-14T15:50:23.059Z,26.95
2022-10-14T15:52:51.133Z,28.00
2022-10-14T15:55:20.798Z,29.25
2022-10-14T15:57:50.183Z,31.60
2022-10-14T16:00:19.371Z,36.17
2022-10-14T16:02:53.982Z,33.22
2022-10-14T16:05:22.238Z,32.05
2022-10-14T16:07:49.745Z,32.05
2022-10-14T16:10:20.290Z,31.08
2022-10-14T16:12:47.903Z,30.92
2022-10-14T16:15:41.460Z,29.50
2022-10-14T16:18:11.679Z,32.17
2022-10-14T16:20:38.977Z,33.70
2022-10-14T16:23:06.377Z,33.08
2022-10-14T16:25:45.183Z,33.20
2022-10-14T16:28:13.804Z,31.20
2022-10-14T16:30:54.748Z,32.25
2022-10-14T16:33:22.499Z,34.28
2022-10-14T16:35:54.889Z,35.20
2022-10-14T16:38:22.980Z,33.35
2022-10-14T16:40:58.048Z,30.92
2022-10-14T16:43:25.974Z,32.55
2022-10-14T16:45:53.140Z,33.83
2022-10-14T16:48:20.166Z,34.20
2022-10-14T16:50:51.068Z,34.63
2022-10-14T16:53:36.508Z,34.65
2022-10-14T16:56:04.268Z,34.45
2022-10-14T16:58:31.158Z,102.80
2022-10-14T17:00:58.081Z,37.88
2022-10-14T17:03:25.067Z,58.17
2022-10-14T17:06:01.109Z,93.15
2022-10-14T17:08:28.482Z,149.07
2022-10-14T17:10:58.378Z,50.90
2022-10-14T17:13:25.475Z,50.37
2022-10-14T17:16:04.824Z,41.15
2022-10-14T17:18:34.857Z,38.70
2022-10-14T17:21:14.799Z,37.70
2022-10-14T17:23:44.047Z,206.93
2022-10-14T17:26:18.598Z,700.88
2022-10-14T17:28:47.331Z,288.90
2022-10-14T17:31:17.143Z,516.78
2022-10-14T17:33:44.338Z,307.48
2022-10-14T17:36:21.192Z,285.50
2022-10-14T17:38:51.060Z,130.35
2022-10-14T17:41:18.841Z,88.10
2022-10-14T17:43:49.754Z,54.95
2022-10-14T17:46:20.942Z,43.67
2022-10-14T17:48:56.651Z,49.15
2022-10-14T17:51:25.652Z,66.35
2022-10-14T17:53:58.531Z,50.47
2022-10-14T17:56:27.525Z,48.75
2022-10-14T17:58:55.779Z,40.03
2022-10-14T18:01:36.902Z,41.15
2022-10-14T18:04:04.601Z,40.83
2022-10-14T18:06:33.709Z,42.53
2022-10-14T18:09:12.545Z,47.63
2022-10-14T18:16:59.613Z,43.88
2022-10-14T18:19:27.528Z,45.03
2022-10-14T18:21:54.511Z,152.57
2022-10-14T18:24:21.547Z,430.80
2022-10-14T18:26:52.649Z,335.60
2022-10-14T18:29:19.834Z,253.32
2022-10-14T18:31:49.628Z,214.80
2022-10-14T18:34:16.823Z,286.50
2022-10-14T18:36:44.098Z,287.15
2022-10-14T18:39:12.547Z,109.20
2022-10-14T18:41:39.931Z,60.95
2022-10-14T18:44:07.343Z,69.82
2022-10-14T18:46:37.447Z,57.08
2022-10-14T18:49:06.324Z,44.05
2022-10-14T18:51:35.476Z,43.20
2022-10-14T18:54:06.397Z,44.03
2022-10-14T18:56:38.535Z,42.47
2022-10-14T18:59:14.150Z,46.58
2022-10-14T19:01:42.418Z,46.45
2022-10-14T19:04:13.325Z,43.05
2022-10-14T19:09:07.085Z,46.95
2022-10-14T19:11:35.682Z,47.88
2022-10-14T19:14:04.645Z,41.83
2022-10-14T19:16:34.090Z,45.50
2022-10-14T19:19:18.741Z,47.10
2022-10-14T19:21:48.746Z,44.67
2022-10-14T19:24:16.358Z,46.17
2022-10-14T19:26:45.957Z,49.28
2022-10-14T19:29:15.647Z,51.20
2022-10-14T19:31:44.363Z,50.45
2022-10-14T19:34:14.088Z,49.08
2022-10-14T19:36:42.409Z,46.70
2022-10-14T19:39:13.766Z,44.83
2022-10-14T19:41:44.704Z,47.20
2022-10-14T19:44:13.185Z,50.25
2022-10-14T19:46:40.676Z,46.53
2022-10-14T19:49:07.736Z,45.60
2022-10-14T19:51:35.655Z,44.60
2022-10-14T19:54:03.502Z,40.78
2022-10-14T19:56:31.321Z,43.38
2022-10-14T19:58:59.380Z,41.03
2022-10-14T20:01:29.236Z,41.95
2022-10-14T20:03:56.975Z,48.07
2022-10-14T20:06:24.504Z,47.20
2022-10-14T20:08:51.721Z,49.38
2022-10-14T20:11:20.160Z,43.67
2022-10-14T20:13:47.318Z,44.47
2022-10-14T20:16:14.445Z,49.08
2022-10-14T20:18:42.063Z,45.85
2022-10-14T20:21:12.023Z,44.88
2022-10-14T20:23:39.458Z,48.50
2022-10-14T20:26:18.566Z,43.70
2022-10-14T20:28:46.829Z,45.03
2022-10-14T20:31:16.769Z,49.28
2022-10-14T20:33:44.211Z,45.80
2022-10-14T20:36:17.561Z,48.97
2022-10-14T20:38:45.536Z,48.90
2022-10-14T20:41:14.431Z,47.03
2022-10-14T20:43:42.658Z,47.78
2022-10-14T20:46:10.151Z,48.30
2022-10-14T20:48:40.456Z,47.95
2022-10-14T20:51:10.306Z,48.95
2022-10-14T20:53:37.739Z,57.15
2022-10-14T20:56:07.196Z,50.53
2022-10-14T20:58:34.239Z,52.55
2022-10-14T21:01:12.956Z,47.45
2022-10-14T21:03:41.105Z,59.53
2022-10-14T21:06:10.534Z,62.67
2022-10-14T21:08:38.025Z,53.13
2022-10-14T21:11:10.542Z,53.47
2022-10-14T21:13:41.944Z,57.45
2022-10-14T21:16:30.122Z,52.30
2022-10-14T21:19:06.031Z,57.72
2022-10-14T21:21:39.326Z,52.72
2022-10-14T21:24:06.985Z,51.80
2022-10-14T21:26:34.130Z,53.75
2022-10-14T21:29:04.801Z,59.40
2022-10-14T21:31:32.005Z,59.03
2022-10-14T21:34:05.389Z,53.53
2022-10-14T21:36:33.817Z,54.45
2022-10-14T21:39:04.279Z,54.55
2022-10-14T21:41:31.687Z,55.05
2022-10-14T21:43:59.394Z,60.58
2022-10-14T21:46:27.567Z,58.85
2022-10-14T21:48:57.446Z,51.13
2022-10-14T21:51:27.534Z,57.93
2022-10-14T21:53:59.232Z,50.10
2022-10-14T21:56:27.209Z,54.90
2022-10-14T21:58:54.396Z,51.45
2022-10-14T22:01:27.500Z,58.63
2022-10-14T22:04:00.132Z,53.03
2022-10-14T22:06:28.137Z,50.17
2022-10-14T22:08:57.693Z,51.13
2022-10-14T22:11:35.329Z,49.17
2022-10-14T22:14:03.969Z,62.03
2022-10-14T22:16:31.611Z,60.70
2022-10-14T22:19:00.493Z,55.72
2022-10-14T22:21:29.925Z,50.25
2022-10-14T22:23:58.584Z,52.28
2022-10-14T22:26:27.017Z,53.60
2022-10-14T22:29:02.474Z,57.35
2022-10-14T22:31:33.283Z,49.38
2022-10-14T22:34:02.182Z,49.58
2022-10-14T22:36:29.896Z,54.33
2022-10-14T22:38:58.674Z,52.45
2022-10-14T22:41:29.791Z,58.22
2022-10-14T22:44:00.571Z,57.42
2022-10-14T22:46:30.406Z,62.30
2022-10-14T22:49:01.123Z,62.92
2022-10-14T22:51:31.119Z,62.10
2022-10-14T22:53:58.473Z,59.73
2022-10-14T22:56:27.697Z,50.45
2022-10-14T22:58:55.439Z,60.65
2022-10-14T23:01:23.614Z,67.80
2022-10-14T23:03:50.811Z,63.58
2022-10-14T23:06:17.868Z,61.35
2022-10-14T23:08:45.266Z,62.85
2022-10-14T23:11:18.240Z,65.25
2022-10-14T23:13:46.133Z,54.88
2022-10-14T23:16:15.503Z,52.25
2022-10-14T23:18:43.598Z,63.38
2022-10-14T23:21:10.650Z,64.22
2022-10-14T23:23:38.014Z,69.47
2022-10-14T23:26:05.646Z,64.95
2022-10-14T23:28:32.607Z,59.60
2022-10-14T23:30:59.552Z,59.58
2022-10-14T23:33:26.485Z,67.07
2022-10-14T23:35:53.569Z,65.57
2022-10-14T23:38:20.544Z,61.00
2022-10-14T23:40:47.530Z,66.40
2022-10-14T23:43:14.579Z,57.50
2022-10-14T23:45:41.616Z,66.05
2022-10-14T23:48:09.163Z,58.83
2022-10-14T23:50:36.075Z,62.88
2022-10-14T23:53:03.166Z,74.43
2022-10-14T23:55:30.879Z,58.00
2022-10-14T23:57:58.005Z,64.80
